Elgin, South Carolina
Current Conditions -  °F | °C
As of 3:55 PM on Saturday 20 Dec 2014 (Local Time) from KCDN Reporting Station
Overcast Overcast  
Wind Chill: 43°   Ceiling: 2200
Heat Index: 46°   Visibility: 8mi
Dew Point: 39°   Wind: 7mph
Humidity: 76%   Direction: 40°NE
Pressure: 30.21"   Gusts: NA
Location:  34.17°N, 80.79°W
Report Text: KCDN 202055Z AUTO 04006KT 8SM OVC022 08/04 A3021 RMK AO2 TSNO
Loading
Personal Weather Stations






























Interactive Weather Map New forecast layout! Learn more

10-Day Weather Forecast

Advertisements
Track Severe Weather on mobile